sensor_id;sensor_type;location;lat;lon;timestamp;P1;durP1;ratioP1;P2;durP2;ratioP2
46288;SDS011;63105;46.158;14.604;2023-01-24T00:00:36;23.83;;;17.30;;
46288;SDS011;63105;46.158;14.604;2023-01-24T00:03:02;22.25;;;16.38;;
46288;SDS011;63105;46.158;14.604;2023-01-24T00:05:28;23.38;;;15.90;;
46288;SDS011;63105;46.158;14.604;2023-01-24T00:07:53;28.00;;;19.25;;
46288;SDS011;63105;46.158;14.604;2023-01-24T00:10:18;22.55;;;16.80;;
46288;SDS011;63105;46.158;14.604;2023-01-24T00:12:43;22.63;;;16.27;;
46288;SDS011;63105;46.158;14.604;2023-01-24T00:15:09;26.63;;;18.00;;
46288;SDS011;63105;46.158;14.604;2023-01-24T00:17:34;32.40;;;23.92;;
46288;SDS011;63105;46.158;14.604;2023-01-24T00:19:59;24.17;;;17.13;;
46288;SDS011;63105;46.158;14.604;2023-01-24T00:22:24;25.98;;;17.40;;
46288;SDS011;63105;46.158;14.604;2023-01-24T00:24:50;24.52;;;17.88;;
46288;SDS011;63105;46.158;14.604;2023-01-24T00:27:15;27.83;;;18.48;;
46288;SDS011;63105;46.158;14.604;2023-01-24T00:29:41;29.38;;;18.75;;
46288;SDS011;63105;46.158;14.604;2023-01-24T00:32:06;28.75;;;19.20;;
46288;SDS011;63105;46.158;14.604;2023-01-24T00:34:31;31.45;;;20.17;;
46288;SDS011;63105;46.158;14.604;2023-01-24T00:36:57;32.42;;;20.15;;
46288;SDS011;63105;46.158;14.604;2023-01-24T00:39:22;31.75;;;21.75;;
46288;SDS011;63105;46.158;14.604;2023-01-24T00:41:47;30.17;;;19.92;;
46288;SDS011;63105;46.158;14.604;2023-01-24T00:44:12;31.80;;;21.30;;
46288;SDS011;63105;46.158;14.604;2023-01-24T00:46:37;29.58;;;19.83;;
46288;SDS011;63105;46.158;14.604;2023-01-24T00:49:03;29.45;;;19.20;;
46288;SDS011;63105;46.158;14.604;2023-01-24T00:51:28;29.80;;;19.00;;
46288;SDS011;63105;46.158;14.604;2023-01-24T00:53:53;30.85;;;20.80;;
46288;SDS011;63105;46.158;14.604;2023-01-24T00:56:18;32.22;;;19.98;;
46288;SDS011;63105;46.158;14.604;2023-01-24T00:58:43;29.23;;;19.38;;
46288;SDS011;63105;46.158;14.604;2023-01-24T01:01:09;28.58;;;19.15;;
46288;SDS011;63105;46.158;14.604;2023-01-24T01:03:34;29.25;;;19.35;;
46288;SDS011;63105;46.158;14.604;2023-01-24T01:06:01;31.77;;;20.60;;
46288;SDS011;63105;46.158;14.604;2023-01-24T01:08:26;27.40;;;18.63;;
46288;SDS011;63105;46.158;14.604;2023-01-24T01:10:51;29.00;;;19.15;;
46288;SDS011;63105;46.158;14.604;2023-01-24T01:13:17;31.70;;;20.25;;
46288;SDS011;63105;46.158;14.604;2023-01-24T01:15:42;28.92;;;19.13;;
46288;SDS011;63105;46.158;14.604;2023-01-24T01:18:07;29.85;;;20.52;;
46288;SDS011;63105;46.158;14.604;2023-01-24T01:20:32;29.35;;;19.80;;
46288;SDS011;63105;46.158;14.604;2023-01-24T01:22:58;30.00;;;19.60;;
46288;SDS011;63105;46.158;14.604;2023-01-24T01:25:23;27.13;;;18.17;;
46288;SDS011;63105;46.158;14.604;2023-01-24T01:27:48;28.05;;;19.50;;
46288;SDS011;63105;46.158;14.604;2023-01-24T01:30:13;28.83;;;18.90;;
46288;SDS011;63105;46.158;14.604;2023-01-24T01:32:38;27.60;;;18.77;;
46288;SDS011;63105;46.158;14.604;2023-01-24T01:35:04;30.45;;;20.10;;
46288;SDS011;63105;46.158;14.604;2023-01-24T01:37:29;26.95;;;18.85;;
46288;SDS011;63105;46.158;14.604;2023-01-24T01:39:54;27.25;;;18.75;;
46288;SDS011;63105;46.158;14.604;2023-01-24T01:42:19;28.55;;;18.95;;
46288;SDS011;63105;46.158;14.604;2023-01-24T01:44:46;28.05;;;19.30;;
46288;SDS011;63105;46.158;14.604;2023-01-24T01:47:26;31.13;;;20.60;;
46288;SDS011;63105;46.158;14.604;2023-01-24T01:52:18;54.22;;;32.15;;
46288;SDS011;63105;46.158;14.604;2023-01-24T01:54:43;33.03;;;23.17;;
46288;SDS011;63105;46.158;14.604;2023-01-24T01:57:12;48.90;;;29.92;;
46288;SDS011;63105;46.158;14.604;2023-01-24T01:59:39;30.60;;;20.98;;
46288;SDS011;63105;46.158;14.604;2023-01-24T02:02:05;29.08;;;20.13;;
46288;SDS011;63105;46.158;14.604;2023-01-24T02:04:34;32.92;;;22.27;;
46288;SDS011;63105;46.158;14.604;2023-01-24T02:07:05;30.63;;;20.48;;
46288;SDS011;63105;46.158;14.604;2023-01-24T02:09:32;26.75;;;18.60;;
46288;SDS011;63105;46.158;14.604;2023-01-24T02:12:00;28.35;;;19.67;;
46288;SDS011;63105;46.158;14.604;2023-01-24T02:14:26;27.63;;;18.92;;
46288;SDS011;63105;46.158;14.604;2023-01-24T02:17:10;29.50;;;19.42;;
46288;SDS011;63105;46.158;14.604;2023-01-24T02:22:07;27.73;;;19.10;;
46288;SDS011;63105;46.158;14.604;2023-01-24T02:24:36;29.92;;;20.42;;
46288;SDS011;63105;46.158;14.604;2023-01-24T02:27:05;31.83;;;19.85;;
46288;SDS011;63105;46.158;14.604;2023-01-24T02:29:30;30.00;;;20.35;;
46288;SDS011;63105;46.158;14.604;2023-01-24T02:32:00;30.30;;;19.70;;
46288;SDS011;63105;46.158;14.604;2023-01-24T02:34:26;44.22;;;27.42;;
46288;SDS011;63105;46.158;14.604;2023-01-24T02:36:53;30.92;;;20.08;;
46288;SDS011;63105;46.158;14.604;2023-01-24T02:39:21;27.90;;;19.77;;
46288;SDS011;63105;46.158;14.604;2023-01-24T02:44:14;29.27;;;19.10;;
46288;SDS011;63105;46.158;14.604;2023-01-24T02:46:45;28.80;;;19.27;;
46288;SDS011;63105;46.158;14.604;2023-01-24T02:49:10;27.65;;;19.45;;
46288;SDS011;63105;46.158;14.604;2023-01-24T02:51:35;30.48;;;20.38;;
46288;SDS011;63105;46.158;14.604;2023-01-24T02:54:20;31.25;;;20.92;;
46288;SDS011;63105;46.158;14.604;2023-01-24T02:56:45;31.65;;;20.85;;
46288;SDS011;63105;46.158;14.604;2023-01-24T02:59:29;32.67;;;21.45;;
46288;SDS011;63105;46.158;14.604;2023-01-24T03:01:54;32.47;;;20.33;;
46288;SDS011;63105;46.158;14.604;2023-01-24T03:04:20;31.75;;;21.38;;
46288;SDS011;63105;46.158;14.604;2023-01-24T03:06:45;34.17;;;21.45;;
46288;SDS011;63105;46.158;14.604;2023-01-24T03:09:10;32.72;;;20.85;;
46288;SDS011;63105;46.158;14.604;2023-01-24T03:11:45;33.33;;;21.42;;
46288;SDS011;63105;46.158;14.604;2023-01-24T03:14:10;31.75;;;20.30;;
46288;SDS011;63105;46.158;14.604;2023-01-24T03:16:54;30.80;;;20.40;;
46288;SDS011;63105;46.158;14.604;2023-01-24T03:19:38;31.38;;;20.70;;
46288;SDS011;63105;46.158;14.604;2023-01-24T03:22:22;33.17;;;21.13;;
46288;SDS011;63105;46.158;14.604;2023-01-24T03:25:06;36.22;;;22.40;;
46288;SDS011;63105;46.158;14.604;2023-01-24T03:27:50;31.35;;;21.17;;
46288;SDS011;63105;46.158;14.604;2023-01-24T03:30:34;32.15;;;21.15;;
46288;SDS011;63105;46.158;14.604;2023-01-24T03:33:18;33.78;;;21.38;;
46288;SDS011;63105;46.158;14.604;2023-01-24T03:36:02;32.38;;;21.38;;
46288;SDS011;63105;46.158;14.604;2023-01-24T03:38:31;43.40;;;24.63;;
46288;SDS011;63105;46.158;14.604;2023-01-24T03:41:15;35.95;;;23.15;;
46288;SDS011;63105;46.158;14.604;2023-01-24T03:43:40;33.40;;;21.67;;
46288;SDS011;63105;46.158;14.604;2023-01-24T03:46:05;32.80;;;20.98;;
46288;SDS011;63105;46.158;14.604;2023-01-24T03:48:31;34.53;;;21.98;;
46288;SDS011;63105;46.158;14.604;2023-01-24T03:51:01;32.90;;;21.70;;
46288;SDS011;63105;46.158;14.604;2023-01-24T03:53:45;34.13;;;21.88;;
46288;SDS011;63105;46.158;14.604;2023-01-24T03:56:10;34.28;;;21.77;;
46288;SDS011;63105;46.158;14.604;2023-01-24T03:58:35;30.52;;;20.17;;
46288;SDS011;63105;46.158;14.604;2023-01-24T04:01:00;33.60;;;20.88;;
46288;SDS011;63105;46.158;14.604;2023-01-24T04:03:26;32.00;;;21.10;;
46288;SDS011;63105;46.158;14.604;2023-01-24T04:05:51;33.90;;;21.23;;
46288;SDS011;63105;46.158;14.604;2023-01-24T04:08:17;31.75;;;20.42;;
46288;SDS011;63105;46.158;14.604;2023-01-24T04:10:42;29.35;;;19.88;;
46288;SDS011;63105;46.158;14.604;2023-01-24T04:13:08;31.60;;;20.35;;
46288;SDS011;63105;46.158;14.604;2023-01-24T04:15:33;32.08;;;20.88;;
46288;SDS011;63105;46.158;14.604;2023-01-24T04:17:59;30.23;;;20.40;;
46288;SDS011;63105;46.158;14.604;2023-01-24T04:20:25;29.60;;;20.15;;
46288;SDS011;63105;46.158;14.604;2023-01-24T04:22:51;29.13;;;20.00;;
46288;SDS011;63105;46.158;14.604;2023-01-24T04:25:16;29.67;;;20.05;;
46288;SDS011;63105;46.158;14.604;2023-01-24T04:27:41;29.13;;;19.73;;
46288;SDS011;63105;46.158;14.604;2023-01-24T04:30:07;29.77;;;20.33;;
46288;SDS011;63105;46.158;14.604;2023-01-24T04:32:33;28.50;;;19.80;;
46288;SDS011;63105;46.158;14.604;2023-01-24T04:34:58;31.17;;;20.48;;
46288;SDS011;63105;46.158;14.604;2023-01-24T04:37:24;31.42;;;20.38;;
46288;SDS011;63105;46.158;14.604;2023-01-24T04:39:50;36.10;;;20.58;;
46288;SDS011;63105;46.158;14.604;2023-01-24T04:42:15;58.03;;;24.38;;
46288;SDS011;63105;46.158;14.604;2023-01-24T04:44:40;32.53;;;21.50;;
46288;SDS011;63105;46.158;14.604;2023-01-24T04:47:05;194.40;;;32.58;;
46288;SDS011;63105;46.158;14.604;2023-01-24T04:49:31;49.67;;;23.27;;
46288;SDS011;63105;46.158;14.604;2023-01-24T04:51:56;39.45;;;23.63;;
46288;SDS011;63105;46.158;14.604;2023-01-24T04:54:21;249.57;;;37.38;;
46288;SDS011;63105;46.158;14.604;2023-01-24T04:56:46;77.40;;;25.50;;
46288;SDS011;63105;46.158;14.604;2023-01-24T04:59:11;146.95;;;31.50;;
46288;SDS011;63105;46.158;14.604;2023-01-24T05:01:37;37.13;;;23.35;;
46288;SDS011;63105;46.158;14.604;2023-01-24T05:04:02;127.45;;;35.33;;
46288;SDS011;63105;46.158;14.604;2023-01-24T05:06:28;32.05;;;21.40;;
46288;SDS011;63105;46.158;14.604;2023-01-24T05:08:54;86.28;;;32.17;;
46288;SDS011;63105;46.158;14.604;2023-01-24T05:11:19;43.22;;;23.73;;
46288;SDS011;63105;46.158;14.604;2023-01-24T05:13:45;35.33;;;23.15;;
46288;SDS011;63105;46.158;14.604;2023-01-24T05:16:10;68.57;;;27.30;;
46288;SDS011;63105;46.158;14.604;2023-01-24T05:18:35;34.92;;;21.83;;
46288;SDS011;63105;46.158;14.604;2023-01-24T05:21:07;37.25;;;23.48;;
46288;SDS011;63105;46.158;14.604;2023-01-24T05:23:33;30.63;;;21.23;;
46288;SDS011;63105;46.158;14.604;2023-01-24T05:25:58;36.10;;;22.23;;
46288;SDS011;63105;46.158;14.604;2023-01-24T05:28:24;34.95;;;22.40;;
46288;SDS011;63105;46.158;14.604;2023-01-24T05:30:49;34.67;;;22.42;;
46288;SDS011;63105;46.158;14.604;2023-01-24T05:33:14;33.28;;;21.20;;
46288;SDS011;63105;46.158;14.604;2023-01-24T05:35:39;34.33;;;21.30;;
46288;SDS011;63105;46.158;14.604;2023-01-24T05:38:05;32.17;;;20.50;;
46288;SDS011;63105;46.158;14.604;2023-01-24T05:40:30;32.30;;;20.90;;
46288;SDS011;63105;46.158;14.604;2023-01-24T05:42:56;33.50;;;21.25;;
46288;SDS011;63105;46.158;14.604;2023-01-24T05:45:21;31.25;;;20.92;;
46288;SDS011;63105;46.158;14.604;2023-01-24T05:47:46;34.00;;;21.00;;
46288;SDS011;63105;46.158;14.604;2023-01-24T05:50:11;31.63;;;21.10;;
46288;SDS011;63105;46.158;14.604;2023-01-24T05:52:36;38.13;;;22.40;;
46288;SDS011;63105;46.158;14.604;2023-01-24T05:55:02;33.83;;;21.67;;
46288;SDS011;63105;46.158;14.604;2023-01-24T05:57:27;33.00;;;22.40;;
46288;SDS011;63105;46.158;14.604;2023-01-24T05:59:53;33.40;;;21.35;;
46288;SDS011;63105;46.158;14.604;2023-01-24T06:02:18;34.15;;;21.55;;
46288;SDS011;63105;46.158;14.604;2023-01-24T06:04:43;33.45;;;21.05;;
46288;SDS011;63105;46.158;14.604;2023-01-24T06:07:08;35.05;;;22.13;;
46288;SDS011;63105;46.158;14.604;2023-01-24T06:09:33;34.95;;;21.67;;
46288;SDS011;63105;46.158;14.604;2023-01-24T06:11:59;37.17;;;22.77;;
46288;SDS011;63105;46.158;14.604;2023-01-24T06:14:24;35.13;;;22.15;;
46288;SDS011;63105;46.158;14.604;2023-01-24T06:16:49;32.97;;;21.77;;
46288;SDS011;63105;46.158;14.604;2023-01-24T06:19:14;29.85;;;19.65;;
46288;SDS011;63105;46.158;14.604;2023-01-24T06:24:05;31.30;;;20.00;;
46288;SDS011;63105;46.158;14.604;2023-01-24T06:26:33;30.88;;;20.45;;
46288;SDS011;63105;46.158;14.604;2023-01-24T06:28:58;31.33;;;20.20;;
46288;SDS011;63105;46.158;14.604;2023-01-24T06:31:34;31.27;;;20.48;;
46288;SDS011;63105;46.158;14.604;2023-01-24T06:36:39;32.95;;;20.92;;
46288;SDS011;63105;46.158;14.604;2023-01-24T06:39:10;29.35;;;20.15;;
46288;SDS011;63105;46.158;14.604;2023-01-24T06:41:36;35.42;;;21.48;;
46288;SDS011;63105;46.158;14.604;2023-01-24T06:44:01;29.38;;;19.45;;
46288;SDS011;63105;46.158;14.604;2023-01-24T06:46:26;30.33;;;19.92;;
46288;SDS011;63105;46.158;14.604;2023-01-24T06:48:52;29.85;;;19.83;;
46288;SDS011;63105;46.158;14.604;2023-01-24T06:51:17;30.77;;;19.45;;
46288;SDS011;63105;46.158;14.604;2023-01-24T06:53:42;30.20;;;19.33;;
46288;SDS011;63105;46.158;14.604;2023-01-24T06:56:07;31.88;;;20.27;;
46288;SDS011;63105;46.158;14.604;2023-01-24T06:58:33;30.23;;;19.15;;
46288;SDS011;63105;46.158;14.604;2023-01-24T07:00:58;45.40;;;24.40;;
46288;SDS011;63105;46.158;14.604;2023-01-24T07:03:23;32.03;;;19.75;;
46288;SDS011;63105;46.158;14.604;2023-01-24T07:05:49;37.75;;;22.25;;
46288;SDS011;63105;46.158;14.604;2023-01-24T07:08:14;31.67;;;19.50;;
46288;SDS011;63105;46.158;14.604;2023-01-24T07:10:39;54.80;;;29.13;;
46288;SDS011;63105;46.158;14.604;2023-01-24T07:13:04;43.60;;;26.20;;
46288;SDS011;63105;46.158;14.604;2023-01-24T07:15:30;35.20;;;22.52;;
46288;SDS011;63105;46.158;14.604;2023-01-24T07:17:55;31.08;;;20.40;;
46288;SDS011;63105;46.158;14.604;2023-01-24T07:20:20;28.02;;;18.90;;
46288;SDS011;63105;46.158;14.604;2023-01-24T07:22:46;31.88;;;19.40;;
46288;SDS011;63105;46.158;14.604;2023-01-24T07:25:12;32.65;;;21.38;;
46288;SDS011;63105;46.158;14.604;2023-01-24T07:27:38;29.13;;;18.48;;
46288;SDS011;63105;46.158;14.604;2023-01-24T07:30:04;28.02;;;18.70;;
46288;SDS011;63105;46.158;14.604;2023-01-24T07:32:29;26.92;;;17.77;;
46288;SDS011;63105;46.158;14.604;2023-01-24T07:34:54;29.08;;;18.60;;
46288;SDS011;63105;46.158;14.604;2023-01-24T07:37:20;28.67;;;19.10;;
46288;SDS011;63105;46.158;14.604;2023-01-24T07:39:48;26.58;;;17.55;;
46288;SDS011;63105;46.158;14.604;2023-01-24T07:42:13;26.70;;;18.85;;
46288;SDS011;63105;46.158;14.604;2023-01-24T07:44:38;29.33;;;19.27;;
46288;SDS011;63105;46.158;14.604;2023-01-24T07:47:03;44.92;;;28.40;;
46288;SDS011;63105;46.158;14.604;2023-01-24T07:49:28;29.23;;;19.00;;
46288;SDS011;63105;46.158;14.604;2023-01-24T07:51:54;38.40;;;24.60;;
46288;SDS011;63105;46.158;14.604;2023-01-24T07:54:19;47.00;;;29.85;;
46288;SDS011;63105;46.158;14.604;2023-01-24T07:56:45;33.67;;;21.23;;
46288;SDS011;63105;46.158;14.604;2023-01-24T07:59:10;29.70;;;19.90;;
46288;SDS011;63105;46.158;14.604;2023-01-24T08:01:35;33.85;;;21.30;;
46288;SDS011;63105;46.158;14.604;2023-01-24T08:04:00;31.42;;;20.70;;
46288;SDS011;63105;46.158;14.604;2023-01-24T08:06:25;31.30;;;20.13;;
46288;SDS011;63105;46.158;14.604;2023-01-24T08:08:51;31.45;;;21.17;;
46288;SDS011;63105;46.158;14.604;2023-01-24T08:11:16;31.25;;;20.80;;
46288;SDS011;63105;46.158;14.604;2023-01-24T08:13:45;49.90;;;32.78;;
46288;SDS011;63105;46.158;14.604;2023-01-24T08:16:10;58.50;;;38.60;;
46288;SDS011;63105;46.158;14.604;2023-01-24T08:18:36;46.85;;;30.77;;
46288;SDS011;63105;46.158;14.604;2023-01-24T08:21:01;39.72;;;26.75;;
46288;SDS011;63105;46.158;14.604;2023-01-24T08:23:27;35.58;;;23.38;;
46288;SDS011;63105;46.158;14.604;2023-01-24T08:25:52;54.50;;;32.90;;
46288;SDS011;63105;46.158;14.604;2023-01-24T08:28:17;50.55;;;33.35;;
46288;SDS011;63105;46.158;14.604;2023-01-24T08:30:42;57.38;;;37.20;;
46288;SDS011;63105;46.158;14.604;2023-01-24T08:33:08;56.97;;;36.17;;
46288;SDS011;63105;46.158;14.604;2023-01-24T08:35:34;73.22;;;39.90;;
46288;SDS011;63105;46.158;14.604;2023-01-24T08:37:59;94.28;;;45.58;;
46288;SDS011;63105;46.158;14.604;2023-01-24T08:40:25;63.00;;;40.45;;
46288;SDS011;63105;46.158;14.604;2023-01-24T08:42:50;55.22;;;38.85;;
46288;SDS011;63105;46.158;14.604;2023-01-24T08:45:15;52.03;;;36.05;;
46288;SDS011;63105;46.158;14.604;2023-01-24T08:47:41;37.13;;;28.13;;
46288;SDS011;63105;46.158;14.604;2023-01-24T08:50:06;37.45;;;26.38;;
46288;SDS011;63105;46.158;14.604;2023-01-24T08:52:32;42.17;;;28.92;;
46288;SDS011;63105;46.158;14.604;2023-01-24T08:54:57;34.80;;;25.17;;
46288;SDS011;63105;46.158;14.604;2023-01-24T08:57:22;39.13;;;29.25;;
46288;SDS011;63105;46.158;14.604;2023-01-24T08:59:47;33.53;;;23.45;;
46288;SDS011;63105;46.158;14.604;2023-01-24T09:02:13;38.88;;;26.90;;
46288;SDS011;63105;46.158;14.604;2023-01-24T09:04:38;39.50;;;27.92;;
46288;SDS011;63105;46.158;14.604;2023-01-24T09:07:03;37.10;;;24.80;;
46288;SDS011;63105;46.158;14.604;2023-01-24T09:09:29;32.30;;;22.52;;
46288;SDS011;63105;46.158;14.604;2023-01-24T09:11:54;37.85;;;24.83;;
46288;SDS011;63105;46.158;14.604;2023-01-24T09:14:20;39.08;;;28.80;;
46288;SDS011;63105;46.158;14.604;2023-01-24T09:16:45;35.25;;;25.30;;
46288;SDS011;63105;46.158;14.604;2023-01-24T09:19:11;32.60;;;23.05;;
46288;SDS011;63105;46.158;14.604;2023-01-24T09:21:36;33.65;;;24.48;;
46288;SDS011;63105;46.158;14.604;2023-01-24T09:24:01;31.35;;;22.55;;
46288;SDS011;63105;46.158;14.604;2023-01-24T09:26:26;29.55;;;22.10;;
46288;SDS011;63105;46.158;14.604;2023-01-24T09:28:51;29.58;;;20.48;;
46288;SDS011;63105;46.158;14.604;2023-01-24T09:31:17;31.98;;;21.65;;
46288;SDS011;63105;46.158;14.604;2023-01-24T09:33:42;27.73;;;20.25;;
46288;SDS011;63105;46.158;14.604;2023-01-24T09:36:07;35.80;;;25.45;;
46288;SDS011;63105;46.158;14.604;2023-01-24T09:38:33;35.08;;;24.90;;
46288;SDS011;63105;46.158;14.604;2023-01-24T09:43:43;27.70;;;20.25;;
46288;SDS011;63105;46.158;14.604;2023-01-24T09:46:17;28.20;;;19.60;;
46288;SDS011;63105;46.158;14.604;2023-01-24T09:48:44;27.42;;;19.95;;
46288;SDS011;63105;46.158;14.604;2023-01-24T09:51:15;26.40;;;18.92;;
46288;SDS011;63105;46.158;14.604;2023-01-24T09:53:47;25.88;;;18.42;;
46288;SDS011;63105;46.158;14.604;2023-01-24T09:56:57;27.17;;;19.08;;
46288;SDS011;63105;46.158;14.604;2023-01-24T10:01:35;26.80;;;18.85;;
46288;SDS011;63105;46.158;14.604;2023-01-24T10:04:03;27.83;;;18.88;;
46288;SDS011;63105;46.158;14.604;2023-01-24T10:06:28;27.77;;;18.60;;
46288;SDS011;63105;46.158;14.604;2023-01-24T10:14:01;23.80;;;18.00;;
46288;SDS011;63105;46.158;14.604;2023-01-24T10:24:24;25.17;;;18.25;;
46288;SDS011;63105;46.158;14.604;2023-01-24T10:26:50;27.48;;;18.65;;
46288;SDS011;63105;46.158;14.604;2023-01-24T10:31:45;25.20;;;17.75;;
46288;SDS011;63105;46.158;14.604;2023-01-24T10:34:25;23.88;;;17.23;;
46288;SDS011;63105;46.158;14.604;2023-01-24T10:36:53;28.60;;;18.95;;
46288;SDS011;63105;46.158;14.604;2023-01-24T10:39:22;36.72;;;26.77;;
46288;SDS011;63105;46.158;14.604;2023-01-24T10:41:48;43.97;;;30.95;;
46288;SDS011;63105;46.158;14.604;2023-01-24T10:44:14;38.40;;;27.20;;
46288;SDS011;63105;46.158;14.604;2023-01-24T10:49:35;74.30;;;47.00;;
46288;SDS011;63105;46.158;14.604;2023-01-24T10:52:07;39.97;;;26.90;;
46288;SDS011;63105;46.158;14.604;2023-01-24T10:54:55;30.15;;;21.23;;
46288;SDS011;63105;46.158;14.604;2023-01-24T10:57:20;28.00;;;20.45;;
46288;SDS011;63105;46.158;14.604;2023-01-24T10:59:48;28.88;;;20.85;;
46288;SDS011;63105;46.158;14.604;2023-01-24T11:02:21;33.88;;;22.73;;
46288;SDS011;63105;46.158;14.604;2023-01-24T11:04:47;34.97;;;24.75;;
46288;SDS011;63105;46.158;14.604;2023-01-24T11:07:28;41.00;;;27.25;;
46288;SDS011;63105;46.158;14.604;2023-01-24T11:09:54;31.45;;;22.45;;
46288;SDS011;63105;46.158;14.604;2023-01-24T11:12:19;39.15;;;28.17;;
46288;SDS011;63105;46.158;14.604;2023-01-24T11:14:47;36.38;;;26.10;;
46288;SDS011;63105;46.158;14.604;2023-01-24T11:17:30;36.88;;;27.50;;
46288;SDS011;63105;46.158;14.604;2023-01-24T11:20:00;32.25;;;23.25;;
46288;SDS011;63105;46.158;14.604;2023-01-24T11:22:27;28.50;;;21.15;;
46288;SDS011;63105;46.158;14.604;2023-01-24T11:25:00;28.80;;;20.75;;
46288;SDS011;63105;46.158;14.604;2023-01-24T11:27:25;28.80;;;20.77;;
46288;SDS011;63105;46.158;14.604;2023-01-24T11:35:19;32.97;;;24.17;;
46288;SDS011;63105;46.158;14.604;2023-01-24T11:43:23;37.97;;;29.65;;
46288;SDS011;63105;46.158;14.604;2023-01-24T11:51:09;26.40;;;19.85;;
46288;SDS011;63105;46.158;14.604;2023-01-24T11:53:45;70.30;;;36.35;;
46288;SDS011;63105;46.158;14.604;2023-01-24T12:01:38;53.43;;;31.33;;
46288;SDS011;63105;46.158;14.604;2023-01-24T12:07:02;29.88;;;20.83;;
46288;SDS011;63105;46.158;14.604;2023-01-24T12:09:31;30.92;;;22.13;;
46288;SDS011;63105;46.158;14.604;2023-01-24T12:14:39;30.00;;;20.55;;
46288;SDS011;63105;46.158;14.604;2023-01-24T12:17:11;32.20;;;22.40;;
46288;SDS011;63105;46.158;14.604;2023-01-24T12:20:00;29.33;;;20.77;;
46288;SDS011;63105;46.158;14.604;2023-01-24T12:22:27;32.28;;;22.10;;
46288;SDS011;63105;46.158;14.604;2023-01-24T12:25:03;30.05;;;20.83;;
46288;SDS011;63105;46.158;14.604;2023-01-24T12:27:31;32.47;;;22.35;;
46288;SDS011;63105;46.158;14.604;2023-01-24T12:38:32;28.27;;;19.92;;
46288;SDS011;63105;46.158;14.604;2023-01-24T12:40:39;28.00;;;20.15;;
46288;SDS011;63105;46.158;14.604;2023-01-24T12:45:34;29.15;;;21.50;;
46288;SDS011;63105;46.158;14.604;2023-01-24T12:48:09;46.45;;;29.65;;
46288;SDS011;63105;46.158;14.604;2023-01-24T12:50:48;35.17;;;23.58;;
46288;SDS011;63105;46.158;14.604;2023-01-24T12:55:48;32.47;;;22.70;;
46288;SDS011;63105;46.158;14.604;2023-01-24T12:58:21;41.25;;;30.08;;
46288;SDS011;63105;46.158;14.604;2023-01-24T13:06:05;30.85;;;20.30;;
46288;SDS011;63105;46.158;14.604;2023-01-24T13:11:22;26.10;;;18.83;;
46288;SDS011;63105;46.158;14.604;2023-01-24T13:14:03;29.02;;;20.33;;
46288;SDS011;63105;46.158;14.604;2023-01-24T13:22:00;27.70;;;20.00;;
46288;SDS011;63105;46.158;14.604;2023-01-24T13:24:43;27.65;;;20.00;;
46288;SDS011;63105;46.158;14.604;2023-01-24T13:32:13;39.67;;;27.10;;
46288;SDS011;63105;46.158;14.604;2023-01-24T13:34:43;52.75;;;33.70;;
46288;SDS011;63105;46.158;14.604;2023-01-24T13:37:16;55.10;;;35.47;;
46288;SDS011;63105;46.158;14.604;2023-01-24T13:39:42;42.97;;;29.63;;
46288;SDS011;63105;46.158;14.604;2023-01-24T13:44:37;31.85;;;23.25;;
46288;SDS011;63105;46.158;14.604;2023-01-24T13:47:03;31.58;;;22.00;;
46288;SDS011;63105;46.158;14.604;2023-01-24T13:51:54;40.27;;;25.43;;
46288;SDS011;63105;46.158;14.604;2023-01-24T13:59:32;28.02;;;20.20;;
46288;SDS011;63105;46.158;14.604;2023-01-24T14:02:01;28.23;;;19.73;;
46288;SDS011;63105;46.158;14.604;2023-01-24T14:04:59;29.08;;;20.30;;
46288;SDS011;63105;46.158;14.604;2023-01-24T14:07:28;26.00;;;19.30;;
46288;SDS011;63105;46.158;14.604;2023-01-24T14:09:57;28.63;;;20.65;;
46288;SDS011;63105;46.158;14.604;2023-01-24T14:12:23;27.10;;;18.98;;
46288;SDS011;63105;46.158;14.604;2023-01-24T14:17:24;28.10;;;19.67;;
46288;SDS011;63105;46.158;14.604;2023-01-24T14:19:50;26.75;;;19.48;;
46288;SDS011;63105;46.158;14.604;2023-01-24T14:22:17;26.98;;;19.02;;
46288;SDS011;63105;46.158;14.604;2023-01-24T14:24:57;31.27;;;20.88;;
46288;SDS011;63105;46.158;14.604;2023-01-24T14:27:32;29.55;;;20.60;;
46288;SDS011;63105;46.158;14.604;2023-01-24T14:30:44;27.70;;;19.55;;
46288;SDS011;63105;46.158;14.604;2023-01-24T14:37:34;29.38;;;20.50;;
46288;SDS011;63105;46.158;14.604;2023-01-24T14:40:10;32.80;;;22.23;;
46288;SDS011;63105;46.158;14.604;2023-01-24T14:42:35;30.23;;;22.63;;
46288;SDS011;63105;46.158;14.604;2023-01-24T14:45:01;30.45;;;20.48;;
46288;SDS011;63105;46.158;14.604;2023-01-24T14:47:26;30.27;;;20.48;;
46288;SDS011;63105;46.158;14.604;2023-01-24T14:49:56;32.45;;;22.35;;
46288;SDS011;63105;46.158;14.604;2023-01-24T14:52:23;32.40;;;21.90;;
46288;SDS011;63105;46.158;14.604;2023-01-24T14:55:00;31.67;;;21.55;;
46288;SDS011;63105;46.158;14.604;2023-01-24T14:57:29;28.95;;;20.55;;
46288;SDS011;63105;46.158;14.604;2023-01-24T15:02:26;30.98;;;20.98;;
46288;SDS011;63105;46.158;14.604;2023-01-24T15:04:52;31.13;;;21.10;;
46288;SDS011;63105;46.158;14.604;2023-01-24T15:07:17;29.67;;;20.95;;
46288;SDS011;63105;46.158;14.604;2023-01-24T15:09:42;29.92;;;20.73;;
46288;SDS011;63105;46.158;14.604;2023-01-24T15:12:24;33.78;;;22.15;;
46288;SDS011;63105;46.158;14.604;2023-01-24T15:14:50;31.83;;;22.05;;
46288;SDS011;63105;46.158;14.604;2023-01-24T15:17:18;32.45;;;21.88;;
46288;SDS011;63105;46.158;14.604;2023-01-24T15:19:46;30.27;;;21.45;;
46288;SDS011;63105;46.158;14.604;2023-01-24T15:22:17;30.20;;;21.48;;
46288;SDS011;63105;46.158;14.604;2023-01-24T15:24:43;32.53;;;22.70;;
46288;SDS011;63105;46.158;14.604;2023-01-24T15:27:20;30.17;;;21.73;;
46288;SDS011;63105;46.158;14.604;2023-01-24T15:29:46;32.65;;;22.05;;
46288;SDS011;63105;46.158;14.604;2023-01-24T15:37:37;36.92;;;24.45;;
46288;SDS011;63105;46.158;14.604;2023-01-24T15:40:02;30.23;;;21.25;;
46288;SDS011;63105;46.158;14.604;2023-01-24T15:42:27;85.32;;;54.03;;
46288;SDS011;63105;46.158;14.604;2023-01-24T15:45:16;44.28;;;29.75;;
46288;SDS011;63105;46.158;14.604;2023-01-24T15:47:42;35.63;;;24.92;;
46288;SDS011;63105;46.158;14.604;2023-01-24T15:50:19;34.05;;;22.95;;
46288;SDS011;63105;46.158;14.604;2023-01-24T15:56:02;34.95;;;24.60;;
46288;SDS011;63105;46.158;14.604;2023-01-24T15:58:28;52.30;;;34.03;;
46288;SDS011;63105;46.158;14.604;2023-01-24T16:00:54;59.08;;;41.88;;
46288;SDS011;63105;46.158;14.604;2023-01-24T16:03:20;47.35;;;33.13;;
46288;SDS011;63105;46.158;14.604;2023-01-24T16:05:45;41.60;;;28.10;;
46288;SDS011;63105;46.158;14.604;2023-01-24T16:08:10;41.38;;;28.90;;
46288;SDS011;63105;46.158;14.604;2023-01-24T16:10:36;44.58;;;30.73;;
46288;SDS011;63105;46.158;14.604;2023-01-24T16:13:01;44.13;;;29.83;;
46288;SDS011;63105;46.158;14.604;2023-01-24T16:15:26;45.35;;;31.08;;